Big Bend, West Virginia
Current Conditions -  °F | °C
As of 11:53 AM on Thursday 18 Dec 2014 (Local Time) from KPKB Reporting Station
Overcast Overcast  
Wind Chill: 24°   Ceiling: 2400
Heat Index: 29°   Visibility: 10mi
Dew Point: 18°   Wind: 5mph
Humidity: 64%   Direction: 270°W
Pressure: 30.27"   Gusts: NA
Location:  38.97°N, 81.16°W
Report Text: KPKB 181653Z 27004KT 10SM OVC024 M02/M08 A3027 RMK AO2 SLP259 T10171078
Loading
Personal Weather Stations






























Interactive Weather Map New forecast layout! Learn more

10-Day Weather Forecast

Advertisements
Track Severe Weather on mobile